Time,TemperatureF,DewpointF,PressureIn,WindDirection,WindDirectionDegrees,WindSpeedMPH,WindSpeedGustMPH,Humidity,HourlyPrecipIn,Conditions,Clouds,dailyrainin,SolarRadiationWatts/m^2,SoftwareType,DateUTC
2013-03-23 00:02:00,23.0,22.0,-100.00,East,80,2.0,5.0,94,0.00,,,0.00,1.000000,,2013-03-23 06:02:00,
2013-03-23 00:12:00,23.0,22.0,-100.00,East,80,2.0,5.0,94,0.00,,,0.00,1.000000,,2013-03-23 06:12:00,
2013-03-23 00:22:00,23.0,22.0,-100.00,East,80,2.0,5.0,94,0.00,,,0.00,1.000000,,2013-03-23 06:22:00,
2013-03-23 00:52:00,22.0,20.0,-100.00,ESE,102,2.0,7.0,93,0.00,,,0.00,1.000000,,2013-03-23 06:52:00,
2013-03-23 01:02:00,22.0,20.0,-100.00,ESE,102,2.0,7.0,93,0.00,,,0.00,1.000000,,2013-03-23 07:02:00,
2013-03-23 01:12:00,22.0,20.0,-100.00,ESE,102,2.0,7.0,93,0.00,,,0.00,1.000000,,2013-03-23 07:12:00,
2013-03-23 01:22:00,22.0,20.0,-100.00,ESE,102,2.0,7.0,93,0.00,,,0.00,1.000000,,2013-03-23 07:22:00,
2013-03-23 01:52:00,20.0,18.0,-100.00,East,93,3.0,7.0,92,0.00,,,0.00,1.000000,,2013-03-23 07:52:00,
2013-03-23 02:02:00,20.0,18.0,-100.00,East,93,3.0,7.0,92,0.00,,,0.00,1.000000,,2013-03-23 08:02:00,
2013-03-23 02:13:00,20.0,18.0,-100.00,East,93,3.0,7.0,92,0.00,,,0.00,1.000000,,2013-03-23 08:13:00,
2013-03-23 02:22:00,20.0,18.0,-100.00,East,93,3.0,7.0,92,0.00,,,0.00,1.000000,,2013-03-23 08:22:00,
2013-03-23 02:52:00,18.0,16.0,-100.00,East,84,3.0,8.0,90,0.00,,,0.00,1.000000,,2013-03-23 08:52:00,
2013-03-23 03:02:00,18.0,16.0,-100.00,East,84,3.0,8.0,90,0.00,,,0.00,1.000000,,2013-03-23 09:02:00,
2013-03-23 03:12:00,18.0,16.0,-100.00,East,84,3.0,8.0,90,0.00,,,0.00,1.000000,,2013-03-23 09:12:00,
2013-03-23 03:22:00,18.0,16.0,-100.00,East,84,3.0,8.0,90,0.00,,,0.00,1.000000,,2013-03-23 09:22:00,
2013-03-23 03:53:00,18.0,16.0,-100.00,East,101,2.0,6.0,91,0.00,,,0.00,1.000000,,2013-03-23 09:53:00,
2013-03-23 04:03:00,18.0,16.0,-100.00,East,101,2.0,6.0,91,0.00,,,0.00,1.000000,,2013-03-23 10:03:00,
2013-03-23 04:13:00,18.0,16.0,-100.00,East,101,2.0,6.0,91,0.00,,,0.00,1.000000,,2013-03-23 10:13:00,
2013-03-23 04:23:00,18.0,16.0,-100.00,East,101,2.0,6.0,91,0.00,,,0.00,1.000000,,2013-03-23 10:23:00,
2013-03-23 04:52:00,17.0,15.0,-100.00,East,89,2.0,5.0,91,0.00,,,0.00,1.000000,,2013-03-23 10:52:00,
2013-03-23 05:03:00,17.0,15.0,-100.00,East,89,2.0,5.0,91,0.00,,,0.00,1.000000,,2013-03-23 11:03:00,
2013-03-23 05:12:00,17.0,15.0,-100.00,East,89,2.0,5.0,91,0.00,,,0.00,1.000000,,2013-03-23 11:12:00,
2013-03-23 05:22:00,17.0,15.0,-100.00,East,89,2.0,5.0,91,0.00,,,0.00,1.000000,,2013-03-23 11:22:00,
2013-03-23 05:52:00,17.0,15.0,-100.00,East,90,1.0,4.0,91,0.00,,,0.00,1.000000,,2013-03-23 11:52:00,
2013-03-23 06:02:00,17.0,15.0,-100.00,East,90,1.0,4.0,91,0.00,,,0.00,1.000000,,2013-03-23 12:02:00,
2013-03-23 06:13:00,17.0,15.0,-100.00,East,90,1.0,4.0,91,0.00,,,0.00,1.000000,,2013-03-23 12:13:00,
2013-03-23 06:22:00,17.0,15.0,-100.00,East,90,1.0,4.0,91,0.00,,,0.00,1.000000,,2013-03-23 12:22:00,
2013-03-23 06:53:00,17.0,15.0,-100.00,East,90,2.0,3.0,90,0.00,,,0.00,1.000000,,2013-03-23 12:53:00,
2013-03-23 07:03:00,17.0,15.0,-100.00,East,90,2.0,3.0,90,0.00,,,0.00,1.000000,,2013-03-23 13:03:00,
2013-03-23 07:12:00,17.0,15.0,-100.00,East,90,2.0,3.0,90,0.00,,,0.00,1.000000,,2013-03-23 13:12:00,
2013-03-23 07:23:00,17.0,15.0,-100.00,East,90,2.0,3.0,90,0.00,,,0.00,1.000000,,2013-03-23 13:23:00,
2013-03-23 07:53:00,16.0,13.0,-100.00,ESE,118,2.0,10.0,89,0.00,,,0.00,1.000000,,2013-03-23 13:53:00,
2013-03-23 08:03:00,16.0,13.0,-100.00,ESE,118,2.0,10.0,89,0.00,,,0.00,1.000000,,2013-03-23 14:03:00,
2013-03-23 08:12:00,16.0,13.0,-100.00,ESE,118,2.0,10.0,89,0.00,,,0.00,1.000000,,2013-03-23 14:12:00,
2013-03-23 08:22:00,16.0,13.0,-100.00,ESE,118,2.0,10.0,89,0.00,,,0.00,1.000000,,2013-03-23 14:22:00,
2013-03-23 08:53:00,16.0,13.0,-100.00,East,92,4.0,9.0,87,0.00,,,0.00,3.000000,,2013-03-23 14:53:00,
2013-03-23 09:03:00,16.0,13.0,-100.00,East,92,4.0,9.0,87,0.00,,,0.00,3.000000,,2013-03-23 15:03:00,
2013-03-23 09:12:00,16.0,13.0,-100.00,East,92,4.0,9.0,87,0.00,,,0.00,3.000000,,2013-03-23 15:12:00,
2013-03-23 09:22:00,16.0,13.0,-100.00,East,92,4.0,9.0,87,0.00,,,0.00,3.000000,,2013-03-23 15:22:00,
2013-03-23 09:53:00,15.0,11.0,-100.00,East,98,4.0,10.0,85,0.00,,,0.00,11.000000,,2013-03-23 15:53:00,
2013-03-23 10:03:00,15.0,11.0,-100.00,East,98,4.0,10.0,85,0.00,,,0.00,11.000000,,2013-03-23 16:03:00,
2013-03-23 10:13:00,15.0,11.0,-100.00,East,98,4.0,10.0,85,0.00,,,0.00,11.000000,,2013-03-23 16:13:00,
2013-03-23 10:23:00,15.0,11.0,-100.00,East,98,4.0,10.0,85,0.00,,,0.00,11.000000,,2013-03-23 16:23:00,
2013-03-23 10:53:00,16.0,11.0,-100.00,ESE,107,3.0,7.0,82,0.00,,,0.00,22.000000,,2013-03-23 16:53:00,
2013-03-23 11:02:00,16.0,11.0,-100.00,ESE,107,3.0,7.0,82,0.00,,,0.00,22.000000,,2013-03-23 17:02:00,
2013-03-23 11:12:00,16.0,11.0,-100.00,ESE,107,3.0,7.0,82,0.00,,,0.00,22.000000,,2013-03-23 17:12:00,
2013-03-23 11:22:00,16.0,11.0,-100.00,ESE,107,3.0,7.0,82,0.00,,,0.00,22.000000,,2013-03-23 17:22:00,
2013-03-23 11:53:00,17.0,11.0,-100.00,East,95,4.0,8.0,78,0.00,,,0.00,34.000000,,2013-03-23 17:53:00,
2013-03-23 12:03:00,17.0,11.0,-100.00,East,95,4.0,8.0,78,0.00,,,0.00,34.000000,,2013-03-23 18:03:00,
2013-03-23 12:12:00,17.0,11.0,-100.00,East,95,4.0,8.0,78,0.00,,,0.00,34.000000,,2013-03-23 18:12:00,
2013-03-23 12:22:00,17.0,11.0,-100.00,East,95,4.0,8.0,78,0.00,,,0.00,34.000000,,2013-03-23 18:22:00,
2013-03-23 12:53:00,18.0,11.0,-100.00,ESE,106,5.0,8.0,75,0.00,,,0.00,44.000000,,2013-03-23 18:53:00,
2013-03-23 13:03:00,18.0,11.0,-100.00,ESE,106,5.0,8.0,75,0.00,,,0.00,44.000000,,2013-03-23 19:03:00,
2013-03-23 13:12:00,18.0,11.0,-100.00,ESE,106,5.0,8.0,75,0.00,,,0.00,44.000000,,2013-03-23 19:12:00,
2013-03-23 13:22:00,18.0,11.0,-100.00,ESE,106,5.0,8.0,75,0.00,,,0.00,44.000000,,2013-03-23 19:22:00,
2013-03-23 13:53:00,20.0,11.0,-100.00,East,92,4.0,9.0,68,0.00,,,0.00,58.000000,,2013-03-23 19:53:00,
2013-03-23 14:03:00,20.0,11.0,-100.00,East,92,4.0,9.0,68,0.00,,,0.00,58.000000,,2013-03-23 20:03:00,
2013-03-23 14:13:00,20.0,11.0,-100.00,East,92,4.0,9.0,68,0.00,,,0.00,58.000000,,2013-03-23 20:13:00,
2013-03-23 14:22:00,20.0,11.0,-100.00,East,92,4.0,9.0,68,0.00,,,0.00,58.000000,,2013-03-23 20:22:00,
2013-03-23 14:53:00,22.0,12.0,-100.00,ESE,116,4.0,8.0,66,0.00,,,0.00,70.000000,,2013-03-23 20:53:00,
2013-03-23 15:02:00,22.0,12.0,-100.00,ESE,116,4.0,8.0,66,0.00,,,0.00,70.000000,,2013-03-23 21:02:00,
2013-03-23 15:12:00,22.0,12.0,-100.00,ESE,116,4.0,8.0,66,0.00,,,0.00,70.000000,,2013-03-23 21:12:00,
2013-03-23 15:22:00,22.0,12.0,-100.00,ESE,116,4.0,8.0,66,0.00,,,0.00,70.000000,,2013-03-23 21:22:00,
2013-03-23 15:54:00,21.0,11.0,-100.00,East,101,4.0,9.0,66,0.00,,,0.00,72.000000,,2013-03-23 21:54:00,
2013-03-23 16:03:00,21.0,11.0,-100.00,East,101,4.0,9.0,66,0.00,,,0.00,72.000000,,2013-03-23 22:03:00,
2013-03-23 16:13:00,21.0,11.0,-100.00,East,101,4.0,9.0,66,0.00,,,0.00,72.000000,,2013-03-23 22:13:00,
2013-03-23 16:23:00,21.0,11.0,-100.00,East,101,4.0,9.0,66,0.00,,,0.00,72.000000,,2013-03-23 22:23:00,
2013-03-23 16:53:00,18.0,11.0,-100.00,ESE,106,4.0,7.0,73,0.00,,,0.00,51.000000,,2013-03-23 22:53:00,
2013-03-23 17:02:00,18.0,11.0,-100.00,ESE,106,4.0,7.0,73,0.00,,,0.00,51.000000,,2013-03-23 23:02:00,
2013-03-23 17:13:00,18.0,11.0,-100.00,ESE,106,4.0,7.0,73,0.00,,,0.00,51.000000,,2013-03-23 23:13:00,
2013-03-23 17:23:00,18.0,11.0,-100.00,ESE,106,4.0,7.0,73,0.00,,,0.00,51.000000,,2013-03-23 23:23:00,
2013-03-23 17:52:00,20.0,10.0,-100.00,SE,127,2.0,7.0,65,0.00,,,0.00,43.000000,,2013-03-23 23:52:00,
2013-03-23 18:02:00,20.0,10.0,-100.00,SE,127,2.0,7.0,65,0.00,,,0.00,43.000000,,2013-03-24 00:02:00,
2013-03-23 18:12:00,20.0,10.0,-100.00,SE,127,2.0,7.0,65,0.00,,,0.00,43.000000,,2013-03-24 00:12:00,
2013-03-23 18:22:00,20.0,10.0,-100.00,SE,127,2.0,7.0,65,0.00,,,0.00,43.000000,,2013-03-24 00:22:00,
2013-03-23 18:53:00,18.0,11.0,-100.00,ESE,105,3.0,6.0,75,0.00,,,0.00,31.000000,,2013-03-24 00:53:00,
2013-03-23 19:02:00,18.0,11.0,-100.00,ESE,105,3.0,6.0,75,0.00,,,0.00,31.000000,,2013-03-24 01:02:00,
2013-03-23 19:12:00,18.0,11.0,-100.00,ESE,105,3.0,6.0,75,0.00,,,0.00,31.000000,,2013-03-24 01:12:00,
2013-03-23 19:22:00,18.0,11.0,-100.00,ESE,105,3.0,6.0,75,0.00,,,0.00,31.000000,,2013-03-24 01:22:00,
2013-03-23 19:53:00,15.0,11.0,-100.00,ESE,106,1.0,5.0,82,0.00,,,0.00,10.000000,,2013-03-24 01:53:00,
2013-03-23 20:03:00,15.0,11.0,-100.00,ESE,106,1.0,5.0,82,0.00,,,0.00,10.000000,,2013-03-24 02:03:00,
2013-03-23 20:12:00,15.0,11.0,-100.00,ESE,106,1.0,5.0,82,0.00,,,0.00,10.000000,,2013-03-24 02:12:00,
2013-03-23 20:22:00,15.0,11.0,-100.00,ESE,106,1.0,5.0,82,0.00,,,0.00,10.000000,,2013-03-24 02:22:00,
2013-03-23 20:52:00,12.0,8.0,-100.00,NE,38,0.0,2.0,85,0.00,,,0.00,1.000000,,2013-03-24 02:52:00,
2013-03-23 21:02:00,12.0,8.0,-100.00,NE,38,0.0,2.0,85,0.00,,,0.00,1.000000,,2013-03-24 03:02:00,
2013-03-23 21:12:00,12.0,8.0,-100.00,NE,38,0.0,2.0,85,0.00,,,0.00,1.000000,,2013-03-24 03:12:00,
2013-03-23 21:22:00,12.0,8.0,-100.00,NE,38,0.0,2.0,85,0.00,,,0.00,1.000000,,2013-03-24 03:22:00,
2013-03-23 21:53:00,9.0,4.0,-100.00,West,274,3.0,5.0,81,0.00,,,0.00,1.000000,,2013-03-24 03:53:00,
2013-03-23 22:03:00,9.0,4.0,-100.00,West,274,3.0,5.0,81,0.00,,,0.00,1.000000,,2013-03-24 04:03:00,
2013-03-23 22:13:00,9.0,4.0,-100.00,West,274,3.0,5.0,81,0.00,,,0.00,1.000000,,2013-03-24 04:13:00,
2013-03-23 22:22:00,9.0,4.0,-100.00,West,274,3.0,5.0,81,0.00,,,0.00,1.000000,,2013-03-24 04:22:00,
2013-03-23 22:53:00,9.0,4.0,-100.00,WNW,283,4.0,6.0,80,0.00,,,0.00,1.000000,,2013-03-24 04:53:00,
2013-03-23 23:02:00,9.0,4.0,-100.00,WNW,283,4.0,6.0,80,0.00,,,0.00,1.000000,,2013-03-24 05:02:00,
2013-03-23 23:12:00,9.0,4.0,-100.00,WNW,283,4.0,6.0,80,0.00,,,0.00,1.000000,,2013-03-24 05:12:00,
2013-03-23 23:22:00,9.0,4.0,-100.00,WNW,283,4.0,6.0,80,0.00,,,0.00,1.000000,,2013-03-24 05:22:00,
2013-03-23 23:52:00,9.0,4.0,-100.00,West,275,3.0,8.0,80,0.00,,,0.00,1.000000,,2013-03-24 05:52:00,